SLPL weather

Padilla Airport
J. Mendoza, Chuquisaca Department, Bolivia

Public forecast

Using degrees Celsius for public forecast. Weather courtesy of forecast.io.

METAR (pilot weather report)

Report is more than 6 hours old.

Closest report is Monteagudo Airport, 36.9 nm (68.3 km) SSE. Retrieved 2019/06/10 15:00 UTC (1 month ago):

SLAG 101500Z 00000KT 9999 NSC 14/13 Q1016

TAF (pilot weather forecast)

Forecast is more than 12 hours old.

Closest forecast is Juana Azurduy De Padilla Airport, 59.1 nm (109.4 km) WNW. Retrieved 2016/05/13 12:12 UTC (3 years ago):

TAF COR SLSU 131000Z 1312/1412 00000KT 9999 BKN010 TX21/1319Z TN08/1411Z BECMG 1313/1315 SCT013 BECMG 1315/1317 03010KT FEW020 BECMG 1402/1404 00000KT